sensor_id;sensor_type;location;lat;lon;timestamp;P1;durP1;ratioP1;P2;durP2;ratioP2
23608;SDS011;11982;50.810;4.442;2024-02-15T00:05:00;19.60;;;6.07;;
23608;SDS011;11982;50.810;4.442;2024-02-15T00:07:26;17.45;;;5.15;;
23608;SDS011;11982;50.810;4.442;2024-02-15T00:09:52;18.95;;;5.47;;
23608;SDS011;11982;50.810;4.442;2024-02-15T00:12:18;23.70;;;5.47;;
23608;SDS011;11982;50.810;4.442;2024-02-15T00:14:45;15.80;;;4.70;;
23608;SDS011;11982;50.810;4.442;2024-02-15T00:20:32;17.23;;;4.50;;
23608;SDS011;11982;50.810;4.442;2024-02-15T00:23:01;24.63;;;5.50;;
23608;SDS011;11982;50.810;4.442;2024-02-15T00:25:26;14.50;;;5.38;;
23608;SDS011;11982;50.810;4.442;2024-02-15T00:27:52;19.10;;;4.80;;
23608;SDS011;11982;50.810;4.442;2024-02-15T00:30:18;19.45;;;4.72;;
23608;SDS011;11982;50.810;4.442;2024-02-15T00:32:43;13.52;;;4.60;;
23608;SDS011;11982;50.810;4.442;2024-02-15T00:35:11;21.63;;;5.05;;
23608;SDS011;11982;50.810;4.442;2024-02-15T00:37:38;21.58;;;5.00;;
23608;SDS011;11982;50.810;4.442;2024-02-15T00:40:05;24.23;;;4.38;;
23608;SDS011;11982;50.810;4.442;2024-02-15T00:42:32;17.75;;;4.38;;
23608;SDS011;11982;50.810;4.442;2024-02-15T00:44:58;16.23;;;4.13;;
23608;SDS011;11982;50.810;4.442;2024-02-15T00:50:46;13.18;;;3.75;;
23608;SDS011;11982;50.810;4.442;2024-02-15T00:53:11;11.90;;;3.92;;
23608;SDS011;11982;50.810;4.442;2024-02-15T00:55:37;17.27;;;3.95;;
23608;SDS011;11982;50.810;4.442;2024-02-15T00:58:02;15.07;;;3.45;;
23608;SDS011;11982;50.810;4.442;2024-02-15T01:00:29;13.85;;;3.30;;
23608;SDS011;11982;50.810;4.442;2024-02-15T01:02:55;17.98;;;3.65;;
23608;SDS011;11982;50.810;4.442;2024-02-15T01:05:21;12.80;;;3.60;;
23608;SDS011;11982;50.810;4.442;2024-02-15T01:07:47;8.80;;;3.38;;
23608;SDS011;11982;50.810;4.442;2024-02-15T01:10:14;17.65;;;3.42;;
23608;SDS011;11982;50.810;4.442;2024-02-15T01:12:40;16.50;;;3.70;;
23608;SDS011;11982;50.810;4.442;2024-02-15T01:15:06;15.93;;;3.95;;
23608;SDS011;11982;50.810;4.442;2024-02-15T01:21:07;11.13;;;3.22;;
23608;SDS011;11982;50.810;4.442;2024-02-15T01:23:33;13.70;;;2.80;;
23608;SDS011;11982;50.810;4.442;2024-02-15T01:26:00;14.80;;;2.90;;
23608;SDS011;11982;50.810;4.442;2024-02-15T01:28:26;9.23;;;2.90;;
23608;SDS011;11982;50.810;4.442;2024-02-15T01:30:51;13.00;;;3.25;;
23608;SDS011;11982;50.810;4.442;2024-02-15T01:33:19;12.75;;;2.95;;
23608;SDS011;11982;50.810;4.442;2024-02-15T01:35:45;15.23;;;3.05;;
23608;SDS011;11982;50.810;4.442;2024-02-15T01:38:10;14.02;;;2.95;;
23608;SDS011;11982;50.810;4.442;2024-02-15T01:40:36;17.30;;;3.35;;
23608;SDS011;11982;50.810;4.442;2024-02-15T01:43:03;11.13;;;3.15;;
23608;SDS011;11982;50.810;4.442;2024-02-15T01:45:29;14.95;;;3.10;;
23608;SDS011;11982;50.810;4.442;2024-02-15T01:51:16;11.65;;;2.85;;
23608;SDS011;11982;50.810;4.442;2024-02-15T01:53:43;15.15;;;3.15;;
23608;SDS011;11982;50.810;4.442;2024-02-15T01:56:10;10.82;;;2.88;;
23608;SDS011;11982;50.810;4.442;2024-02-15T01:58:39;15.80;;;3.00;;
23608;SDS011;11982;50.810;4.442;2024-02-15T02:01:06;12.75;;;3.25;;
23608;SDS011;11982;50.810;4.442;2024-02-15T02:03:32;9.85;;;2.75;;
23608;SDS011;11982;50.810;4.442;2024-02-15T02:05:57;14.63;;;3.40;;
23608;SDS011;11982;50.810;4.442;2024-02-15T02:08:25;11.73;;;3.33;;
23608;SDS011;11982;50.810;4.442;2024-02-15T02:10:51;13.65;;;3.30;;
23608;SDS011;11982;50.810;4.442;2024-02-15T02:13:18;16.02;;;2.97;;
23608;SDS011;11982;50.810;4.442;2024-02-15T02:15:43;11.15;;;2.90;;
23608;SDS011;11982;50.810;4.442;2024-02-15T02:21:31;9.40;;;2.75;;
23608;SDS011;11982;50.810;4.442;2024-02-15T02:24:00;14.52;;;3.20;;
23608;SDS011;11982;50.810;4.442;2024-02-15T02:26:33;15.88;;;3.08;;
23608;SDS011;11982;50.810;4.442;2024-02-15T02:28:59;6.40;;;2.60;;
23608;SDS011;11982;50.810;4.442;2024-02-15T02:31:31;10.57;;;2.80;;
23608;SDS011;11982;50.810;4.442;2024-02-15T02:33:58;11.65;;;3.10;;
23608;SDS011;11982;50.810;4.442;2024-02-15T02:36:24;19.30;;;2.63;;
23608;SDS011;11982;50.810;4.442;2024-02-15T02:38:51;10.60;;;3.13;;
23608;SDS011;11982;50.810;4.442;2024-02-15T02:41:17;14.07;;;3.25;;
23608;SDS011;11982;50.810;4.442;2024-02-15T02:43:49;7.72;;;2.97;;
23608;SDS011;11982;50.810;4.442;2024-02-15T02:46:20;10.60;;;3.08;;
23608;SDS011;11982;50.810;4.442;2024-02-15T02:52:08;8.52;;;3.08;;
23608;SDS011;11982;50.810;4.442;2024-02-15T02:54:33;10.60;;;3.15;;
23608;SDS011;11982;50.810;4.442;2024-02-15T02:56:59;9.60;;;2.95;;
23608;SDS011;11982;50.810;4.442;2024-02-15T02:59:25;11.93;;;2.67;;
23608;SDS011;11982;50.810;4.442;2024-02-15T03:01:51;8.93;;;2.47;;
23608;SDS011;11982;50.810;4.442;2024-02-15T03:04:16;8.68;;;2.65;;
23608;SDS011;11982;50.810;4.442;2024-02-15T03:06:43;15.70;;;2.90;;
23608;SDS011;11982;50.810;4.442;2024-02-15T03:09:08;7.32;;;2.83;;
23608;SDS011;11982;50.810;4.442;2024-02-15T03:11:35;9.23;;;2.53;;
23608;SDS011;11982;50.810;4.442;2024-02-15T03:14:01;11.27;;;2.72;;
23608;SDS011;11982;50.810;4.442;2024-02-15T03:16:29;12.20;;;3.03;;
23608;SDS011;11982;50.810;4.442;2024-02-15T03:22:22;9.82;;;3.13;;
23608;SDS011;11982;50.810;4.442;2024-02-15T03:24:50;8.35;;;2.88;;
23608;SDS011;11982;50.810;4.442;2024-02-15T03:27:16;7.38;;;2.75;;
23608;SDS011;11982;50.810;4.442;2024-02-15T03:29:41;15.52;;;3.00;;
23608;SDS011;11982;50.810;4.442;2024-02-15T03:39:02;8.57;;;2.35;;
23608;SDS011;11982;50.810;4.442;2024-02-15T03:41:31;10.85;;;2.97;;
23608;SDS011;11982;50.810;4.442;2024-02-15T03:43:58;7.65;;;2.95;;
23608;SDS011;11982;50.810;4.442;2024-02-15T03:46:25;13.73;;;3.17;;
23608;SDS011;11982;50.810;4.442;2024-02-15T03:52:12;10.85;;;3.03;;
23608;SDS011;11982;50.810;4.442;2024-02-15T03:54:38;11.30;;;2.50;;
23608;SDS011;11982;50.810;4.442;2024-02-15T03:57:04;13.30;;;3.00;;
23608;SDS011;11982;50.810;4.442;2024-02-15T03:59:31;8.02;;;2.90;;
23608;SDS011;11982;50.810;4.442;2024-02-15T04:01:57;8.32;;;2.28;;
23608;SDS011;11982;50.810;4.442;2024-02-15T04:07:45;12.45;;;3.22;;
23608;SDS011;11982;50.810;4.442;2024-02-15T04:10:11;9.48;;;2.53;;
23608;SDS011;11982;50.810;4.442;2024-02-15T04:12:37;8.40;;;2.47;;
23608;SDS011;11982;50.810;4.442;2024-02-15T04:15:03;14.82;;;2.83;;
23608;SDS011;11982;50.810;4.442;2024-02-15T04:17:37;12.83;;;3.50;;
23608;SDS011;11982;50.810;4.442;2024-02-15T04:23:25;8.27;;;2.90;;
23608;SDS011;11982;50.810;4.442;2024-02-15T04:25:51;9.70;;;3.10;;
23608;SDS011;11982;50.810;4.442;2024-02-15T04:28:16;8.43;;;2.65;;
23608;SDS011;11982;50.810;4.442;2024-02-15T04:30:42;11.65;;;3.15;;
23608;SDS011;11982;50.810;4.442;2024-02-15T04:33:08;9.77;;;2.47;;
23608;SDS011;11982;50.810;4.442;2024-02-15T04:35:34;9.45;;;2.33;;
23608;SDS011;11982;50.810;4.442;2024-02-15T04:38:00;9.45;;;2.85;;
23608;SDS011;11982;50.810;4.442;2024-02-15T04:40:26;11.32;;;3.08;;
23608;SDS011;11982;50.810;4.442;2024-02-15T04:42:52;8.45;;;2.50;;
23608;SDS011;11982;50.810;4.442;2024-02-15T04:45:18;12.40;;;3.00;;
23608;SDS011;11982;50.810;4.442;2024-02-15T04:47:45;15.02;;;2.78;;
23608;SDS011;11982;50.810;4.442;2024-02-15T04:53:36;4.90;;;2.47;;
23608;SDS011;11982;50.810;4.442;2024-02-15T04:56:04;11.00;;;3.03;;
23608;SDS011;11982;50.810;4.442;2024-02-15T04:58:38;9.13;;;2.40;;
23608;SDS011;11982;50.810;4.442;2024-02-15T05:01:12;7.43;;;2.30;;
23608;SDS011;11982;50.810;4.442;2024-02-15T05:03:41;5.78;;;2.10;;
23608;SDS011;11982;50.810;4.442;2024-02-15T05:06:07;8.90;;;2.25;;
23608;SDS011;11982;50.810;4.442;2024-02-15T05:08:34;7.72;;;2.38;;
23608;SDS011;11982;50.810;4.442;2024-02-15T05:11:07;11.18;;;2.60;;
23608;SDS011;11982;50.810;4.442;2024-02-15T05:13:40;11.52;;;2.72;;
23608;SDS011;11982;50.810;4.442;2024-02-15T05:16:06;7.18;;;2.35;;
23608;SDS011;11982;50.810;4.442;2024-02-15T05:18:32;7.35;;;2.00;;
23608;SDS011;11982;50.810;4.442;2024-02-15T05:20:59;6.47;;;2.10;;
23608;SDS011;11982;50.810;4.442;2024-02-15T05:23:27;8.50;;;2.35;;
23608;SDS011;11982;50.810;4.442;2024-02-15T05:25:52;10.80;;;2.38;;
23608;SDS011;11982;50.810;4.442;2024-02-15T05:28:19;9.05;;;1.88;;
23608;SDS011;11982;50.810;4.442;2024-02-15T05:31:08;6.97;;;2.05;;
23608;SDS011;11982;50.810;4.442;2024-02-15T05:33:37;7.78;;;2.15;;
23608;SDS011;11982;50.810;4.442;2024-02-15T05:36:09;7.28;;;1.90;;
23608;SDS011;11982;50.810;4.442;2024-02-15T05:38:51;14.82;;;2.33;;
23608;SDS011;11982;50.810;4.442;2024-02-15T05:41:18;6.90;;;2.05;;
23608;SDS011;11982;50.810;4.442;2024-02-15T05:43:45;3.70;;;1.90;;
23608;SDS011;11982;50.810;4.442;2024-02-15T05:46:13;5.90;;;2.30;;
23608;SDS011;11982;50.810;4.442;2024-02-15T05:48:39;8.45;;;2.05;;
23608;SDS011;11982;50.810;4.442;2024-02-15T05:51:05;6.03;;;2.00;;
23608;SDS011;11982;50.810;4.442;2024-02-15T05:53:33;6.75;;;2.10;;
23608;SDS011;11982;50.810;4.442;2024-02-15T05:56:03;9.45;;;2.13;;
23608;SDS011;11982;50.810;4.442;2024-02-15T05:58:33;5.55;;;2.00;;
23608;SDS011;11982;50.810;4.442;2024-02-15T06:01:00;7.97;;;1.92;;
23608;SDS011;11982;50.810;4.442;2024-02-15T06:03:29;6.43;;;1.88;;
23608;SDS011;11982;50.810;4.442;2024-02-15T06:09:19;8.63;;;1.88;;
23608;SDS011;11982;50.810;4.442;2024-02-15T06:11:47;8.20;;;1.88;;
23608;SDS011;11982;50.810;4.442;2024-02-15T06:14:12;6.47;;;2.08;;
23608;SDS011;11982;50.810;4.442;2024-02-15T06:16:42;10.60;;;2.55;;
23608;SDS011;11982;50.810;4.442;2024-02-15T06:19:09;7.30;;;2.13;;
23608;SDS011;11982;50.810;4.442;2024-02-15T06:21:35;4.53;;;2.08;;
23608;SDS011;11982;50.810;4.442;2024-02-15T06:24:00;3.88;;;1.80;;
23608;SDS011;11982;50.810;4.442;2024-02-15T06:26:26;5.82;;;2.28;;
23608;SDS011;11982;50.810;4.442;2024-02-15T06:28:51;5.40;;;2.00;;
23608;SDS011;11982;50.810;4.442;2024-02-15T06:31:36;7.82;;;1.83;;
23608;SDS011;11982;50.810;4.442;2024-02-15T06:34:31;12.35;;;2.20;;
23608;SDS011;11982;50.810;4.442;2024-02-15T06:37:34;3.35;;;1.40;;
23608;SDS011;11982;50.810;4.442;2024-02-15T06:40:19;7.10;;;2.13;;
23608;SDS011;11982;50.810;4.442;2024-02-15T06:42:45;6.28;;;1.52;;
23608;SDS011;11982;50.810;4.442;2024-02-15T06:45:11;7.18;;;1.88;;
23608;SDS011;11982;50.810;4.442;2024-02-15T06:47:40;7.78;;;2.03;;
23608;SDS011;11982;50.810;4.442;2024-02-15T06:50:09;7.03;;;2.08;;
23608;SDS011;11982;50.810;4.442;2024-02-15T06:52:36;6.75;;;1.60;;
23608;SDS011;11982;50.810;4.442;2024-02-15T06:55:03;8.68;;;1.70;;
23608;SDS011;11982;50.810;4.442;2024-02-15T06:57:33;12.07;;;2.40;;
23608;SDS011;11982;50.810;4.442;2024-02-15T07:00:01;7.05;;;1.75;;
23608;SDS011;11982;50.810;4.442;2024-02-15T07:02:32;5.75;;;1.60;;
23608;SDS011;11982;50.810;4.442;2024-02-15T07:04:58;7.60;;;1.85;;
23608;SDS011;11982;50.810;4.442;2024-02-15T07:07:24;2.83;;;1.65;;
23608;SDS011;11982;50.810;4.442;2024-02-15T07:09:50;14.45;;;2.60;;
23608;SDS011;11982;50.810;4.442;2024-02-15T07:12:16;10.88;;;2.47;;
23608;SDS011;11982;50.810;4.442;2024-02-15T07:14:42;11.48;;;2.30;;
23608;SDS011;11982;50.810;4.442;2024-02-15T07:17:08;5.10;;;1.60;;
23608;SDS011;11982;50.810;4.442;2024-02-15T07:19:34;6.03;;;1.63;;
23608;SDS011;11982;50.810;4.442;2024-02-15T07:25:23;8.00;;;1.48;;
23608;SDS011;11982;50.810;4.442;2024-02-15T07:27:48;10.57;;;2.00;;
23608;SDS011;11982;50.810;4.442;2024-02-15T07:30:14;7.07;;;1.50;;
23608;SDS011;11982;50.810;4.442;2024-02-15T07:32:40;6.85;;;1.95;;
23608;SDS011;11982;50.810;4.442;2024-02-15T07:35:06;6.05;;;1.90;;
23608;SDS011;11982;50.810;4.442;2024-02-15T07:37:32;9.07;;;2.15;;
23608;SDS011;11982;50.810;4.442;2024-02-15T07:39:59;6.07;;;1.92;;
23608;SDS011;11982;50.810;4.442;2024-02-15T07:42:25;9.52;;;1.90;;
23608;SDS011;11982;50.810;4.442;2024-02-15T07:44:51;5.10;;;2.00;;
23608;SDS011;11982;50.810;4.442;2024-02-15T07:47:20;7.80;;;2.25;;
23608;SDS011;11982;50.810;4.442;2024-02-15T07:49:49;5.82;;;1.60;;
23608;SDS011;11982;50.810;4.442;2024-02-15T07:55:37;6.22;;;1.58;;
23608;SDS011;11982;50.810;4.442;2024-02-15T07:58:03;6.10;;;1.50;;
23608;SDS011;11982;50.810;4.442;2024-02-15T08:00:29;4.20;;;1.38;;
23608;SDS011;11982;50.810;4.442;2024-02-15T08:02:55;9.82;;;1.80;;
23608;SDS011;11982;50.810;4.442;2024-02-15T08:05:24;6.95;;;1.60;;
23608;SDS011;11982;50.810;4.442;2024-02-15T08:07:50;8.13;;;1.98;;
23608;SDS011;11982;50.810;4.442;2024-02-15T08:10:16;4.93;;;1.92;;
23608;SDS011;11982;50.810;4.442;2024-02-15T08:12:45;6.30;;;1.90;;
23608;SDS011;11982;50.810;4.442;2024-02-15T08:15:11;6.43;;;1.73;;
23608;SDS011;11982;50.810;4.442;2024-02-15T08:17:38;4.55;;;1.70;;
23608;SDS011;11982;50.810;4.442;2024-02-15T08:20:06;4.85;;;1.50;;
23608;SDS011;11982;50.810;4.442;2024-02-15T08:25:54;8.13;;;1.88;;
23608;SDS011;11982;50.810;4.442;2024-02-15T08:28:20;10.20;;;1.52;;
23608;SDS011;11982;50.810;4.442;2024-02-15T08:30:46;7.75;;;2.47;;
23608;SDS011;11982;50.810;4.442;2024-02-15T08:33:12;6.93;;;2.13;;
23608;SDS011;11982;50.810;4.442;2024-02-15T08:35:38;6.47;;;1.80;;
23608;SDS011;11982;50.810;4.442;2024-02-15T08:38:05;4.72;;;1.77;;
23608;SDS011;11982;50.810;4.442;2024-02-15T08:40:31;6.88;;;1.60;;
23608;SDS011;11982;50.810;4.442;2024-02-15T08:42:57;6.32;;;1.70;;
23608;SDS011;11982;50.810;4.442;2024-02-15T08:45:23;5.50;;;1.92;;
23608;SDS011;11982;50.810;4.442;2024-02-15T08:47:49;6.93;;;2.00;;
23608;SDS011;11982;50.810;4.442;2024-02-15T08:50:18;9.02;;;1.90;;
23608;SDS011;11982;50.810;4.442;2024-02-15T08:56:06;8.15;;;1.92;;
23608;SDS011;11982;50.810;4.442;2024-02-15T08:58:35;5.85;;;1.90;;
23608;SDS011;11982;50.810;4.442;2024-02-15T09:01:00;8.70;;;1.98;;
23608;SDS011;11982;50.810;4.442;2024-02-15T09:03:28;9.63;;;2.25;;
23608;SDS011;11982;50.810;4.442;2024-02-15T09:05:53;7.13;;;1.48;;
23608;SDS011;11982;50.810;4.442;2024-02-15T09:08:19;4.43;;;1.63;;
23608;SDS011;11982;50.810;4.442;2024-02-15T09:10:46;5.45;;;1.30;;
23608;SDS011;11982;50.810;4.442;2024-02-15T09:13:14;4.22;;;1.45;;
23608;SDS011;11982;50.810;4.442;2024-02-15T09:15:42;5.30;;;1.50;;
23608;SDS011;11982;50.810;4.442;2024-02-15T09:18:08;5.55;;;1.90;;
23608;SDS011;11982;50.810;4.442;2024-02-15T09:20:36;6.72;;;1.83;;
23608;SDS011;11982;50.810;4.442;2024-02-15T09:26:26;5.75;;;1.95;;
23608;SDS011;11982;50.810;4.442;2024-02-15T09:28:55;7.05;;;1.50;;
23608;SDS011;11982;50.810;4.442;2024-02-15T09:31:21;7.68;;;1.60;;
23608;SDS011;11982;50.810;4.442;2024-02-15T09:33:49;5.00;;;1.20;;
23608;SDS011;11982;50.810;4.442;2024-02-15T09:36:15;5.43;;;1.55;;
23608;SDS011;11982;50.810;4.442;2024-02-15T09:42:53;3.60;;;1.92;;
23608;SDS011;11982;50.810;4.442;2024-02-15T09:45:19;7.45;;;2.10;;
23608;SDS011;11982;50.810;4.442;2024-02-15T09:47:46;4.78;;;1.85;;
23608;SDS011;11982;50.810;4.442;2024-02-15T09:50:15;8.02;;;2.17;;
23608;SDS011;11982;50.810;4.442;2024-02-15T09:56:04;4.70;;;1.70;;
23608;SDS011;11982;50.810;4.442;2024-02-15T09:58:31;6.88;;;1.35;;
23608;SDS011;11982;50.810;4.442;2024-02-15T10:01:03;5.95;;;1.50;;
23608;SDS011;11982;50.810;4.442;2024-02-15T10:03:34;4.78;;;1.48;;
23608;SDS011;11982;50.810;4.442;2024-02-15T10:06:05;6.47;;;1.35;;
23608;SDS011;11982;50.810;4.442;2024-02-15T10:11:54;4.18;;;1.55;;
23608;SDS011;11982;50.810;4.442;2024-02-15T10:14:21;4.22;;;1.65;;
23608;SDS011;11982;50.810;4.442;2024-02-15T10:16:47;5.10;;;1.92;;
23608;SDS011;11982;50.810;4.442;2024-02-15T10:19:13;4.55;;;1.83;;
23608;SDS011;11982;50.810;4.442;2024-02-15T10:21:40;7.20;;;1.60;;
23608;SDS011;11982;50.810;4.442;2024-02-15T10:27:27;4.53;;;1.80;;
23608;SDS011;11982;50.810;4.442;2024-02-15T10:29:55;5.93;;;1.70;;
23608;SDS011;11982;50.810;4.442;2024-02-15T10:32:46;7.13;;;1.48;;
23608;SDS011;11982;50.810;4.442;2024-02-15T10:35:19;3.88;;;1.35;;
23608;SDS011;11982;50.810;4.442;2024-02-15T10:37:46;2.33;;;1.25;;
23608;SDS011;11982;50.810;4.442;2024-02-15T10:40:19;3.25;;;1.50;;
23608;SDS011;11982;50.810;4.442;2024-02-15T10:45:16;7.53;;;1.48;;
23608;SDS011;11982;50.810;4.442;2024-02-15T10:47:45;5.57;;;1.60;;
23608;SDS011;11982;50.810;4.442;2024-02-15T10:50:14;5.07;;;1.67;;
23608;SDS011;11982;50.810;4.442;2024-02-15T10:52:59;4.43;;;1.25;;
23608;SDS011;11982;50.810;4.442;2024-02-15T10:55:40;3.22;;;1.30;;
23608;SDS011;11982;50.810;4.442;2024-02-15T11:00:49;3.17;;;1.33;;
23608;SDS011;11982;50.810;4.442;2024-02-15T11:03:20;6.18;;;1.40;;
23608;SDS011;11982;50.810;4.442;2024-02-15T11:05:50;3.10;;;1.30;;
23608;SDS011;11982;50.810;4.442;2024-02-15T11:08:17;4.25;;;1.50;;
23608;SDS011;11982;50.810;4.442;2024-02-15T11:10:43;4.05;;;1.63;;
23608;SDS011;11982;50.810;4.442;2024-02-15T11:13:10;5.38;;;1.25;;
23608;SDS011;11982;50.810;4.442;2024-02-15T11:15:42;5.80;;;2.00;;
23608;SDS011;11982;50.810;4.442;2024-02-15T11:21:13;6.90;;;1.50;;
23608;SDS011;11982;50.810;4.442;2024-02-15T11:24:18;5.55;;;2.00;;
23608;SDS011;11982;50.810;4.442;2024-02-15T11:27:03;3.13;;;1.20;;
23608;SDS011;11982;50.810;4.442;2024-02-15T11:32:34;7.22;;;1.85;;
23608;SDS011;11982;50.810;4.442;2024-02-15T11:35:10;3.33;;;1.35;;
23608;SDS011;11982;50.810;4.442;2024-02-15T11:40:59;6.90;;;1.85;;
23608;SDS011;11982;50.810;4.442;2024-02-15T11:46:21;7.63;;;2.60;;
23608;SDS011;11982;50.810;4.442;2024-02-15T11:48:50;8.25;;;2.33;;
23608;SDS011;11982;50.810;4.442;2024-02-15T11:57:14;7.07;;;1.80;;
23608;SDS011;11982;50.810;4.442;2024-02-15T11:59:51;7.63;;;1.83;;
23608;SDS011;11982;50.810;4.442;2024-02-15T12:02:39;5.18;;;1.80;;
23608;SDS011;11982;50.810;4.442;2024-02-15T12:05:23;3.25;;;1.50;;
23608;SDS011;11982;50.810;4.442;2024-02-15T12:08:07;4.78;;;1.90;;
23608;SDS011;11982;50.810;4.442;2024-02-15T12:10:57;5.35;;;1.80;;
23608;SDS011;11982;50.810;4.442;2024-02-15T12:13:54;4.07;;;1.65;;
23608;SDS011;11982;50.810;4.442;2024-02-15T12:16:38;4.07;;;1.60;;
23608;SDS011;11982;50.810;4.442;2024-02-15T12:19:22;6.13;;;1.63;;
23608;SDS011;11982;50.810;4.442;2024-02-15T12:21:48;3.90;;;1.90;;
23608;SDS011;11982;50.810;4.442;2024-02-15T12:24:15;4.35;;;1.83;;
23608;SDS011;11982;50.810;4.442;2024-02-15T12:26:42;4.63;;;2.58;;
23608;SDS011;11982;50.810;4.442;2024-02-15T12:29:08;4.97;;;1.75;;
23608;SDS011;11982;50.810;4.442;2024-02-15T12:31:37;3.63;;;2.10;;
23608;SDS011;11982;50.810;4.442;2024-02-15T12:34:03;6.47;;;2.17;;
23608;SDS011;11982;50.810;4.442;2024-02-15T12:36:33;7.88;;;2.67;;
23608;SDS011;11982;50.810;4.442;2024-02-15T12:39:05;5.63;;;1.50;;
23608;SDS011;11982;50.810;4.442;2024-02-15T12:41:42;5.18;;;2.13;;
23608;SDS011;11982;50.810;4.442;2024-02-15T12:44:18;3.70;;;2.10;;
23608;SDS011;11982;50.810;4.442;2024-02-15T12:46:53;5.95;;;2.38;;
23608;SDS011;11982;50.810;4.442;2024-02-15T12:51:52;7.63;;;2.72;;
23608;SDS011;11982;50.810;4.442;2024-02-15T12:54:22;7.07;;;3.30;;
23608;SDS011;11982;50.810;4.442;2024-02-15T12:56:48;5.55;;;2.08;;
23608;SDS011;11982;50.810;4.442;2024-02-15T12:59:14;5.60;;;2.20;;
23608;SDS011;11982;50.810;4.442;2024-02-15T13:01:40;6.10;;;1.75;;
23608;SDS011;11982;50.810;4.442;2024-02-15T13:04:05;5.65;;;1.67;;
23608;SDS011;11982;50.810;4.442;2024-02-15T13:06:33;4.95;;;1.45;;
23608;SDS011;11982;50.810;4.442;2024-02-15T13:09:01;4.10;;;1.42;;
23608;SDS011;11982;50.810;4.442;2024-02-15T13:11:28;5.43;;;2.78;;
23608;SDS011;11982;50.810;4.442;2024-02-15T13:13:54;3.47;;;1.50;;
23608;SDS011;11982;50.810;4.442;2024-02-15T13:16:20;4.28;;;1.95;;
23608;SDS011;11982;50.810;4.442;2024-02-15T13:18:48;4.43;;;1.80;;
23608;SDS011;11982;50.810;4.442;2024-02-15T13:21:14;4.93;;;2.03;;
23608;SDS011;11982;50.810;4.442;2024-02-15T13:23:40;5.95;;;2.05;;
23608;SDS011;11982;50.810;4.442;2024-02-15T13:29:27;3.67;;;1.63;;
23608;SDS011;11982;50.810;4.442;2024-02-15T13:31:53;3.15;;;1.50;;
23608;SDS011;11982;50.810;4.442;2024-02-15T13:34:19;6.57;;;1.42;;
23608;SDS011;11982;50.810;4.442;2024-02-15T13:36:46;2.55;;;1.08;;
23608;SDS011;11982;50.810;4.442;2024-02-15T13:39:11;2.97;;;1.02;;
23608;SDS011;11982;50.810;4.442;2024-02-15T13:41:37;5.50;;;1.55;;
23608;SDS011;11982;50.810;4.442;2024-02-15T13:44:02;2.22;;;1.27;;
23608;SDS011;11982;50.810;4.442;2024-02-15T13:46:29;2.72;;;1.10;;
23608;SDS011;11982;50.810;4.442;2024-02-15T13:48:55;6.65;;;1.00;;
23608;SDS011;11982;50.810;4.442;2024-02-15T13:51:23;2.10;;;1.10;;
23608;SDS011;11982;50.810;4.442;2024-02-15T13:53:49;3.05;;;1.05;;
23608;SDS011;11982;50.810;4.442;2024-02-15T13:59:37;4.18;;;1.23;;
23608;SDS011;11982;50.810;4.442;2024-02-15T14:02:02;4.55;;;1.10;;
23608;SDS011;11982;50.810;4.442;2024-02-15T14:04:29;3.08;;;1.30;;
23608;SDS011;11982;50.810;4.442;2024-02-15T14:06:54;2.13;;;1.02;;
23608;SDS011;11982;50.810;4.442;2024-02-15T14:09:21;2.00;;;1.10;;
23608;SDS011;11982;50.810;4.442;2024-02-15T14:15:12;2.85;;;1.40;;
23608;SDS011;11982;50.810;4.442;2024-02-15T14:17:38;4.55;;;1.50;;
23608;SDS011;11982;50.810;4.442;2024-02-15T14:20:04;3.20;;;1.50;;
23608;SDS011;11982;50.810;4.442;2024-02-15T14:22:34;9.48;;;1.30;;
23608;SDS011;11982;50.810;4.442;2024-02-15T14:25:01;2.72;;;1.05;;
23608;SDS011;11982;50.810;4.442;2024-02-15T14:27:27;5.07;;;1.63;;
23608;SDS011;11982;50.810;4.442;2024-02-15T14:29:52;2.22;;;0.82;;
23608;SDS011;11982;50.810;4.442;2024-02-15T14:32:36;2.00;;;1.17;;
23608;SDS011;11982;50.810;4.442;2024-02-15T14:35:20;5.13;;;1.15;;
23608;SDS011;11982;50.810;4.442;2024-02-15T14:37:46;1.80;;;0.82;;
23608;SDS011;11982;50.810;4.442;2024-02-15T14:40:12;6.35;;;1.35;;
23608;SDS011;11982;50.810;4.442;2024-02-15T14:42:41;2.28;;;1.10;;
23608;SDS011;11982;50.810;4.442;2024-02-15T14:45:11;6.88;;;1.08;;
23608;SDS011;11982;50.810;4.442;2024-02-15T14:47:37;1.98;;;1.20;;
23608;SDS011;11982;50.810;4.442;2024-02-15T14:50:03;4.97;;;1.23;;
23608;SDS011;11982;50.810;4.442;2024-02-15T14:52:33;3.33;;;1.02;;
23608;SDS011;11982;50.810;4.442;2024-02-15T14:55:02;2.92;;;1.27;;
23608;SDS011;11982;50.810;4.442;2024-02-15T14:57:30;3.88;;;1.15;;
23608;SDS011;11982;50.810;4.442;2024-02-15T14:59:57;13.18;;;1.60;;
23608;SDS011;11982;50.810;4.442;2024-02-15T15:02:23;3.70;;;1.40;;
23608;SDS011;11982;50.810;4.442;2024-02-15T15:04:49;6.18;;;1.60;;
23608;SDS011;11982;50.810;4.442;2024-02-15T15:07:34;4.15;;;1.30;;
23608;SDS011;11982;50.810;4.442;2024-02-15T15:10:18;1.80;;;1.20;;
23608;SDS011;11982;50.810;4.442;2024-02-15T15:13:02;3.33;;;1.60;;
23608;SDS011;11982;50.810;4.442;2024-02-15T15:15:28;5.07;;;1.65;;
23608;SDS011;11982;50.810;4.442;2024-02-15T15:17:53;7.00;;;3.97;;
23608;SDS011;11982;50.810;4.442;2024-02-15T15:20:20;5.65;;;2.40;;
23608;SDS011;11982;50.810;4.442;2024-02-15T15:22:46;4.47;;;2.05;;
23608;SDS011;11982;50.810;4.442;2024-02-15T15:25:12;6.43;;;4.50;;
23608;SDS011;11982;50.810;4.442;2024-02-15T15:30:59;11.65;;;10.55;;
23608;SDS011;11982;50.810;4.442;2024-02-15T15:33:25;15.07;;;11.45;;
23608;SDS011;11982;50.810;4.442;2024-02-15T15:35:51;20.92;;;11.80;;
23608;SDS011;11982;50.810;4.442;2024-02-15T15:38:18;11.00;;;6.13;;
23608;SDS011;11982;50.810;4.442;2024-02-15T15:40:44;44.08;;;25.48;;
23608;SDS011;11982;50.810;4.442;2024-02-15T15:43:10;8.23;;;5.32;;
23608;SDS011;11982;50.810;4.442;2024-02-15T15:45:38;15.80;;;10.90;;
23608;SDS011;11982;50.810;4.442;2024-02-15T15:48:05;26.95;;;16.52;;
23608;SDS011;11982;50.810;4.442;2024-02-15T15:50:34;18.17;;;12.18;;
23608;SDS011;11982;50.810;4.442;2024-02-15T15:53:03;11.88;;;8.77;;
23608;SDS011;11982;50.810;4.442;2024-02-15T15:55:29;5.22;;;1.70;;
23608;SDS011;11982;50.810;4.442;2024-02-15T16:01:17;14.70;;;8.75;;
23608;SDS011;11982;50.810;4.442;2024-02-15T16:03:47;8.70;;;5.20;;
23608;SDS011;11982;50.810;4.442;2024-02-15T16:06:13;3.17;;;2.80;;
23608;SDS011;11982;50.810;4.442;2024-02-15T16:08:39;5.00;;;2.25;;
23608;SDS011;11982;50.810;4.442;2024-02-15T16:11:06;3.55;;;1.60;;
23608;SDS011;11982;50.810;4.442;2024-02-15T16:13:31;4.43;;;1.83;;
23608;SDS011;11982;50.810;4.442;2024-02-15T16:15:57;4.30;;;1.45;;
23608;SDS011;11982;50.810;4.442;2024-02-15T16:18:23;5.57;;;1.75;;
23608;SDS011;11982;50.810;4.442;2024-02-15T16:20:48;3.30;;;1.92;;
23608;SDS011;11982;50.810;4.442;2024-02-15T16:23:14;5.75;;;2.08;;
23608;SDS011;11982;50.810;4.442;2024-02-15T16:25:40;2.25;;;1.40;;
23608;SDS011;11982;50.810;4.442;2024-02-15T16:31:27;3.65;;;1.65;;
23608;SDS011;11982;50.810;4.442;2024-02-15T16:33:53;4.72;;;1.55;;
23608;SDS011;11982;50.810;4.442;2024-02-15T16:36:18;2.90;;;1.77;;
23608;SDS011;11982;50.810;4.442;2024-02-15T16:38:44;5.80;;;1.95;;
23608;SDS011;11982;50.810;4.442;2024-02-15T16:41:10;5.05;;;2.00;;
23608;SDS011;11982;50.810;4.442;2024-02-15T16:46:58;4.43;;;2.47;;
23608;SDS011;11982;50.810;4.442;2024-02-15T16:49:23;8.45;;;5.47;;
23608;SDS011;11982;50.810;4.442;2024-02-15T16:51:49;12.00;;;6.65;;
23608;SDS011;11982;50.810;4.442;2024-02-15T16:54:15;6.03;;;2.90;;
23608;SDS011;11982;50.810;4.442;2024-02-15T16:56:40;5.07;;;2.10;;
23608;SDS011;11982;50.810;4.442;2024-02-15T16:59:07;6.50;;;2.03;;
23608;SDS011;11982;50.810;4.442;2024-02-15T17:01:36;8.35;;;2.60;;